sensor_id;sensor_type;location;lat;lon;timestamp;pressure;altitude;pressure_sealevel;temperature;humidity
73415;BME280;61633;53.742;-2.990;2022-10-31T00:01:19;101195.82;;;11.39;62.61
73415;BME280;61633;53.742;-2.990;2022-10-31T00:03:43;101195.63;;;12.22;61.37
73415;BME280;61633;53.742;-2.990;2022-10-31T00:06:08;101197.64;;;11.36;61.11
73415;BME280;61633;53.742;-2.990;2022-10-31T00:08:33;101198.17;;;12.08;60.51
73415;BME280;61633;53.742;-2.990;2022-10-31T00:10:59;101193.58;;;12.21;60.06
73415;BME280;61633;53.742;-2.990;2022-10-31T00:13:24;101199.11;;;10.68;63.48
73415;BME280;61633;53.742;-2.990;2022-10-31T00:15:50;101201.05;;;11.14;62.58
73415;BME280;61633;53.742;-2.990;2022-10-31T00:18:15;101199.84;;;11.67;61.00
73415;BME280;61633;53.742;-2.990;2022-10-31T00:20:41;101201.95;;;11.79;61.14
73415;BME280;61633;53.742;-2.990;2022-10-31T00:23:07;101206.10;;;11.48;61.91
73415;BME280;61633;53.742;-2.990;2022-10-31T00:25:34;101208.92;;;11.10;62.83
73415;BME280;61633;53.742;-2.990;2022-10-31T00:27:58;101209.28;;;11.06;64.50
73415;BME280;61633;53.742;-2.990;2022-10-31T00:30:23;101214.50;;;10.95;63.53
73415;BME280;61633;53.742;-2.990;2022-10-31T00:32:48;101216.35;;;11.09;64.59
73415;BME280;61633;53.742;-2.990;2022-10-31T00:35:14;101220.05;;;11.22;64.35
73415;BME280;61633;53.742;-2.990;2022-10-31T00:37:39;101213.55;;;11.56;63.63
73415;BME280;61633;53.742;-2.990;2022-10-31T00:40:11;101215.56;;;11.06;64.89
73415;BME280;61633;53.742;-2.990;2022-10-31T00:42:30;101219.02;;;11.42;64.17
73415;BME280;61633;53.742;-2.990;2022-10-31T00:44:56;101216.98;;;10.71;64.42
73415;BME280;61633;53.742;-2.990;2022-10-31T00:47:21;101214.53;;;11.08;65.04
73415;BME280;61633;53.742;-2.990;2022-10-31T00:49:46;101211.28;;;11.03;65.78
73415;BME280;61633;53.742;-2.990;2022-10-31T00:52:12;101213.62;;;11.01;64.14
73415;BME280;61633;53.742;-2.990;2022-10-31T00:54:37;101216.60;;;10.52;66.15
73415;BME280;61633;53.742;-2.990;2022-10-31T00:57:04;101222.65;;;11.56;63.67
73415;BME280;61633;53.742;-2.990;2022-10-31T00:59:28;101223.30;;;10.37;64.69
73415;BME280;61633;53.742;-2.990;2022-10-31T01:01:54;101221.52;;;11.66;63.99
73415;BME280;61633;53.742;-2.990;2022-10-31T01:04:19;101224.44;;;11.18;64.40
73415;BME280;61633;53.742;-2.990;2022-10-31T01:06:45;101218.36;;;10.73;64.49
73415;BME280;61633;53.742;-2.990;2022-10-31T01:09:10;101224.47;;;10.92;65.19
73415;BME280;61633;53.742;-2.990;2022-10-31T01:11:36;101224.35;;;11.11;65.18
73415;BME280;61633;53.742;-2.990;2022-10-31T01:14:01;101226.84;;;10.46;64.57
73415;BME280;61633;53.742;-2.990;2022-10-31T01:16:27;101233.43;;;11.38;63.84
73415;BME280;61633;53.742;-2.990;2022-10-31T01:18:53;101235.79;;;11.08;64.97
73415;BME280;61633;53.742;-2.990;2022-10-31T01:21:19;101236.23;;;10.97;64.51
73415;BME280;61633;53.742;-2.990;2022-10-31T01:23:43;101234.17;;;11.22;64.39
73415;BME280;61633;53.742;-2.990;2022-10-31T01:26:11;101230.81;;;10.91;64.59
73415;BME280;61633;53.742;-2.990;2022-10-31T01:28:35;101228.66;;;10.69;65.45
73415;BME280;61633;53.742;-2.990;2022-10-31T01:31:02;101226.85;;;11.26;64.54
73415;BME280;61633;53.742;-2.990;2022-10-31T01:33:25;101219.63;;;11.78;63.19
73415;BME280;61633;53.742;-2.990;2022-10-31T01:35:51;101219.14;;;11.17;65.28
73415;BME280;61633;53.742;-2.990;2022-10-31T01:38:16;101210.95;;;11.98;64.13
73415;BME280;61633;53.742;-2.990;2022-10-31T01:40:41;101220.57;;;11.29;66.64
73415;BME280;61633;53.742;-2.990;2022-10-31T01:43:11;101219.53;;;10.80;66.81
73415;BME280;61633;53.742;-2.990;2022-10-31T01:45:33;101221.75;;;11.32;66.53
73415;BME280;61633;53.742;-2.990;2022-10-31T01:47:58;101217.18;;;11.65;65.82
73415;BME280;61633;53.742;-2.990;2022-10-31T01:50:29;101219.63;;;11.22;67.35
73415;BME280;61633;53.742;-2.990;2022-10-31T01:52:50;101218.08;;;11.56;65.84
73415;BME280;61633;53.742;-2.990;2022-10-31T01:55:17;101216.31;;;11.32;66.57
73415;BME280;61633;53.742;-2.990;2022-10-31T01:57:43;101215.80;;;11.23;67.66
73415;BME280;61633;53.742;-2.990;2022-10-31T02:00:09;101213.07;;;11.12;66.13
73415;BME280;61633;53.742;-2.990;2022-10-31T02:02:32;101208.76;;;11.23;68.28
73415;BME280;61633;53.742;-2.990;2022-10-31T02:04:57;101202.86;;;11.97;65.49
73415;BME280;61633;53.742;-2.990;2022-10-31T02:07:26;101210.52;;;11.44;66.89
73415;BME280;61633;53.742;-2.990;2022-10-31T02:09:48;101208.12;;;10.93;68.52
73415;BME280;61633;53.742;-2.990;2022-10-31T02:12:14;101210.42;;;11.00;68.40
73415;BME280;61633;53.742;-2.990;2022-10-31T02:14:39;101218.06;;;10.76;67.10
73415;BME280;61633;53.742;-2.990;2022-10-31T02:17:09;101215.58;;;11.39;65.91
73415;BME280;61633;53.742;-2.990;2022-10-31T02:19:34;101216.93;;;11.12;66.94
73415;BME280;61633;53.742;-2.990;2022-10-31T02:22:01;101213.18;;;11.22;64.58
73415;BME280;61633;53.742;-2.990;2022-10-31T02:24:34;101214.91;;;11.68;64.39
73415;BME280;61633;53.742;-2.990;2022-10-31T02:26:55;101214.24;;;11.44;65.83
73415;BME280;61633;53.742;-2.990;2022-10-31T02:29:21;101206.14;;;11.30;65.19
73415;BME280;61633;53.742;-2.990;2022-10-31T02:31:46;101210.29;;;11.35;66.08
73415;BME280;61633;53.742;-2.990;2022-10-31T02:34:08;101211.03;;;11.50;65.60
73415;BME280;61633;53.742;-2.990;2022-10-31T02:36:32;101209.50;;;10.28;67.21
73415;BME280;61633;53.742;-2.990;2022-10-31T02:39:00;101211.23;;;11.42;66.42
73415;BME280;61633;53.742;-2.990;2022-10-31T02:41:24;101213.31;;;11.21;66.24
73415;BME280;61633;53.742;-2.990;2022-10-31T02:43:51;101216.28;;;11.15;66.28
73415;BME280;61633;53.742;-2.990;2022-10-31T02:46:14;101223.95;;;10.87;66.49
73415;BME280;61633;53.742;-2.990;2022-10-31T02:48:38;101217.34;;;11.43;65.63
73415;BME280;61633;53.742;-2.990;2022-10-31T02:51:02;101215.52;;;10.88;65.37
73415;BME280;61633;53.742;-2.990;2022-10-31T02:53:26;101215.64;;;11.01;66.44
73415;BME280;61633;53.742;-2.990;2022-10-31T02:55:58;101216.36;;;10.73;66.94
73415;BME280;61633;53.742;-2.990;2022-10-31T02:58:23;101213.41;;;11.50;65.73
73415;BME280;61633;53.742;-2.990;2022-10-31T03:00:49;101209.16;;;11.48;66.04
73415;BME280;61633;53.742;-2.990;2022-10-31T03:03:11;101209.30;;;10.84;66.55
73415;BME280;61633;53.742;-2.990;2022-10-31T03:05:41;101214.05;;;11.06;66.35
73415;BME280;61633;53.742;-2.990;2022-10-31T03:08:05;101208.50;;;10.89;66.50
73415;BME280;61633;53.742;-2.990;2022-10-31T03:10:31;101210.73;;;10.87;66.70
73415;BME280;61633;53.742;-2.990;2022-10-31T03:12:55;101210.78;;;11.52;65.59
73415;BME280;61633;53.742;-2.990;2022-10-31T03:15:21;101210.92;;;10.77;66.63
73415;BME280;61633;53.742;-2.990;2022-10-31T03:17:50;101205.19;;;11.35;66.00
73415;BME280;61633;53.742;-2.990;2022-10-31T03:20:09;101206.45;;;10.08;67.24
73415;BME280;61633;53.742;-2.990;2022-10-31T03:22:32;101201.64;;;10.64;67.20
73415;BME280;61633;53.742;-2.990;2022-10-31T03:24:58;101200.99;;;10.90;67.77
73415;BME280;61633;53.742;-2.990;2022-10-31T03:27:25;101199.08;;;10.88;68.06
73415;BME280;61633;53.742;-2.990;2022-10-31T03:29:49;101195.65;;;10.88;66.55
73415;BME280;61633;53.742;-2.990;2022-10-31T03:32:16;101196.44;;;10.87;66.95
73415;BME280;61633;53.742;-2.990;2022-10-31T03:34:41;101193.77;;;10.99;66.49
73415;BME280;61633;53.742;-2.990;2022-10-31T03:37:13;101189.64;;;10.60;66.08
73415;BME280;61633;53.742;-2.990;2022-10-31T03:39:32;101186.80;;;11.18;65.92
73415;BME280;61633;53.742;-2.990;2022-10-31T03:41:59;101186.17;;;10.24;68.23
73415;BME280;61633;53.742;-2.990;2022-10-31T04:54:39;101156.70;;;10.27;69.62
73415;BME280;61633;53.742;-2.990;2022-10-31T04:57:06;101158.59;;;10.95;68.20
73415;BME280;61633;53.742;-2.990;2022-10-31T04:59:31;101157.54;;;9.83;68.63
73415;BME280;61633;53.742;-2.990;2022-10-31T05:01:56;101158.92;;;10.67;68.59
73415;BME280;61633;53.742;-2.990;2022-10-31T05:04:22;101154.95;;;10.81;68.27
73415;BME280;61633;53.742;-2.990;2022-10-31T05:06:47;101152.60;;;10.22;68.20
73415;BME280;61633;53.742;-2.990;2022-10-31T05:09:12;101150.03;;;10.17;69.12
73415;BME280;61633;53.742;-2.990;2022-10-31T05:11:38;101148.81;;;10.55;68.86
73415;BME280;61633;53.742;-2.990;2022-10-31T05:14:05;101152.76;;;10.07;69.42
73415;BME280;61633;53.742;-2.990;2022-10-31T05:16:29;101154.78;;;10.85;67.50
73415;BME280;61633;53.742;-2.990;2022-10-31T05:18:55;101149.99;;;10.72;68.30
73415;BME280;61633;53.742;-2.990;2022-10-31T05:21:21;101146.65;;;9.83;69.44
73415;BME280;61633;53.742;-2.990;2022-10-31T05:23:46;101149.44;;;10.82;68.15
73415;BME280;61633;53.742;-2.990;2022-10-31T05:26:12;101141.92;;;10.49;68.37
73415;BME280;61633;53.742;-2.990;2022-10-31T05:28:37;101140.66;;;10.62;67.50
73415;BME280;61633;53.742;-2.990;2022-10-31T05:31:08;101137.95;;;9.82;69.16
73415;BME280;61633;53.742;-2.990;2022-10-31T05:33:28;101141.97;;;10.52;68.44
73415;BME280;61633;53.742;-2.990;2022-10-31T05:35:54;101132.36;;;11.17;66.11
73415;BME280;61633;53.742;-2.990;2022-10-31T05:38:19;101138.62;;;10.50;67.07
73415;BME280;61633;53.742;-2.990;2022-10-31T05:40:45;101140.63;;;10.69;67.74
73415;BME280;61633;53.742;-2.990;2022-10-31T05:43:11;101143.26;;;10.55;67.77
73415;BME280;61633;53.742;-2.990;2022-10-31T05:45:36;101129.35;;;10.88;66.92
73415;BME280;61633;53.742;-2.990;2022-10-31T05:48:02;101128.81;;;11.00;67.89
73415;BME280;61633;53.742;-2.990;2022-10-31T05:50:29;101124.16;;;10.23;68.38
73415;BME280;61633;53.742;-2.990;2022-10-31T05:52:55;101117.88;;;10.31;69.01
73415;BME280;61633;53.742;-2.990;2022-10-31T05:55:19;101114.40;;;10.93;67.79
73415;BME280;61633;53.742;-2.990;2022-10-31T05:57:44;101109.31;;;10.39;69.05
73415;BME280;61633;53.742;-2.990;2022-10-31T06:00:10;101114.05;;;9.91;70.05
73415;BME280;61633;53.742;-2.990;2022-10-31T06:02:35;101116.03;;;10.01;70.18
73415;BME280;61633;53.742;-2.990;2022-10-31T06:05:01;101120.05;;;9.99;70.22
73415;BME280;61633;53.742;-2.990;2022-10-31T06:07:26;101115.69;;;10.35;69.70
73415;BME280;61633;53.742;-2.990;2022-10-31T06:09:52;101111.22;;;10.32;69.57
73415;BME280;61633;53.742;-2.990;2022-10-31T06:12:18;101112.51;;;10.32;68.58
73415;BME280;61633;53.742;-2.990;2022-10-31T06:14:44;101112.29;;;10.78;68.17
73415;BME280;61633;53.742;-2.990;2022-10-31T06:17:09;101118.14;;;9.96;69.32
73415;BME280;61633;53.742;-2.990;2022-10-31T06:19:35;101112.12;;;10.49;67.29
73415;BME280;61633;53.742;-2.990;2022-10-31T06:22:00;101111.65;;;10.99;66.75
73415;BME280;61633;53.742;-2.990;2022-10-31T06:24:26;101115.95;;;10.87;67.74
73415;BME280;61633;53.742;-2.990;2022-10-31T06:26:51;101112.98;;;10.45;69.79
73415;BME280;61633;53.742;-2.990;2022-10-31T06:29:16;101114.85;;;10.03;71.10
73415;BME280;61633;53.742;-2.990;2022-10-31T06:31:42;101111.18;;;11.05;68.68
73415;BME280;61633;53.742;-2.990;2022-10-31T06:34:07;101107.38;;;9.84;68.97
73415;BME280;61633;53.742;-2.990;2022-10-31T06:36:33;101099.98;;;9.74;70.34
73415;BME280;61633;53.742;-2.990;2022-10-31T06:38:59;101103.08;;;10.48;69.13
73415;BME280;61633;53.742;-2.990;2022-10-31T06:41:24;101100.96;;;10.18;70.69
73415;BME280;61633;53.742;-2.990;2022-10-31T06:43:50;101096.70;;;10.05;70.90
73415;BME280;61633;53.742;-2.990;2022-10-31T06:46:15;101094.77;;;10.30;69.88
73415;BME280;61633;53.742;-2.990;2022-10-31T06:48:41;101096.65;;;11.09;69.23
73415;BME280;61633;53.742;-2.990;2022-10-31T06:51:06;101091.76;;;9.55;70.04
73415;BME280;61633;53.742;-2.990;2022-10-31T06:53:32;101086.21;;;10.58;69.09
73415;BME280;61633;53.742;-2.990;2022-10-31T06:55:57;101089.08;;;10.52;69.98
73415;BME280;61633;53.742;-2.990;2022-10-31T06:58:23;101089.88;;;9.91;70.45
73415;BME280;61633;53.742;-2.990;2022-10-31T07:00:48;101095.14;;;10.48;70.16
73415;BME280;61633;53.742;-2.990;2022-10-31T07:03:14;101090.88;;;10.22;70.63
73415;BME280;61633;53.742;-2.990;2022-10-31T07:05:40;101090.09;;;10.31;70.39
73415;BME280;61633;53.742;-2.990;2022-10-31T07:08:12;101098.34;;;10.29;70.38
73415;BME280;61633;53.742;-2.990;2022-10-31T07:10:33;101102.90;;;10.22;69.34
73415;BME280;61633;53.742;-2.990;2022-10-31T07:12:57;101098.63;;;11.27;69.11
73415;BME280;61633;53.742;-2.990;2022-10-31T07:15:22;101104.26;;;10.33;69.60
73415;BME280;61633;53.742;-2.990;2022-10-31T07:17:47;101112.52;;;10.79;69.36
73415;BME280;61633;53.742;-2.990;2022-10-31T07:20:13;101115.85;;;10.65;68.73
73415;BME280;61633;53.742;-2.990;2022-10-31T07:22:38;101110.87;;;10.60;68.11
73415;BME280;61633;53.742;-2.990;2022-10-31T07:25:07;101115.63;;;10.99;67.98
73415;BME280;61633;53.742;-2.990;2022-10-31T07:27:36;101114.77;;;11.86;66.24
73415;BME280;61633;53.742;-2.990;2022-10-31T07:29:55;101120.55;;;10.94;66.64
73415;BME280;61633;53.742;-2.990;2022-10-31T07:32:20;101120.97;;;11.17;66.55
73415;BME280;61633;53.742;-2.990;2022-10-31T07:34:46;101121.62;;;11.19;66.58
73415;BME280;61633;53.742;-2.990;2022-10-31T07:37:12;101115.85;;;11.09;66.93
73415;BME280;61633;53.742;-2.990;2022-10-31T07:39:37;101114.19;;;10.81;68.31
73415;BME280;61633;53.742;-2.990;2022-10-31T07:42:03;101106.12;;;11.41;65.69
73415;BME280;61633;53.742;-2.990;2022-10-31T07:44:28;101110.17;;;11.17;65.62
73415;BME280;61633;53.742;-2.990;2022-10-31T07:46:54;101115.43;;;11.20;67.51
73415;BME280;61633;53.742;-2.990;2022-10-31T07:49:19;101102.26;;;11.42;66.80
73415;BME280;61633;53.742;-2.990;2022-10-31T07:51:44;101102.31;;;10.80;68.76
73415;BME280;61633;53.742;-2.990;2022-10-31T07:54:13;101105.89;;;10.68;69.15
73415;BME280;61633;53.742;-2.990;2022-10-31T07:56:36;101107.58;;;10.90;69.77
73415;BME280;61633;53.742;-2.990;2022-10-31T07:59:01;101106.74;;;10.41;70.26
73415;BME280;61633;53.742;-2.990;2022-10-31T08:01:28;101098.46;;;11.24;68.69
73415;BME280;61633;53.742;-2.990;2022-10-31T08:03:53;101101.51;;;10.68;70.26
73415;BME280;61633;53.742;-2.990;2022-10-31T08:06:18;101104.29;;;10.30;70.15
73415;BME280;61633;53.742;-2.990;2022-10-31T08:08:44;101101.46;;;10.92;69.64
73415;BME280;61633;53.742;-2.990;2022-10-31T08:11:09;101099.28;;;11.17;69.38
73415;BME280;61633;53.742;-2.990;2022-10-31T08:13:34;101103.35;;;10.78;69.93
73415;BME280;61633;53.742;-2.990;2022-10-31T08:16:00;101104.49;;;11.46;69.45
73415;BME280;61633;53.742;-2.990;2022-10-31T08:18:26;101115.56;;;10.87;70.28
73415;BME280;61633;53.742;-2.990;2022-10-31T08:20:53;101110.69;;;10.50;70.59
73415;BME280;61633;53.742;-2.990;2022-10-31T08:23:17;101117.32;;;10.42;71.60
73415;BME280;61633;53.742;-2.990;2022-10-31T08:25:42;101117.81;;;11.34;70.87
73415;BME280;61633;53.742;-2.990;2022-10-31T08:28:09;101126.01;;;10.23;71.26
73415;BME280;61633;53.742;-2.990;2022-10-31T08:30:36;101121.28;;;10.67;71.81
73415;BME280;61633;53.742;-2.990;2022-10-31T08:33:01;101124.96;;;10.72;72.03
73415;BME280;61633;53.742;-2.990;2022-10-31T08:35:24;101132.09;;;10.74;71.23
73415;BME280;61633;53.742;-2.990;2022-10-31T08:37:52;101130.97;;;11.24;70.84
73415;BME280;61633;53.742;-2.990;2022-10-31T08:40:15;101130.23;;;10.87;71.16
73415;BME280;61633;53.742;-2.990;2022-10-31T08:42:40;101135.98;;;10.72;71.78
73415;BME280;61633;53.742;-2.990;2022-10-31T08:45:10;101133.62;;;10.24;70.82
73415;BME280;61633;53.742;-2.990;2022-10-31T08:47:31;101132.65;;;11.25;70.42
73415;BME280;61633;53.742;-2.990;2022-10-31T08:49:56;101127.17;;;11.66;68.92
73415;BME280;61633;53.742;-2.990;2022-10-31T08:52:23;101124.05;;;11.16;68.89
73415;BME280;61633;53.742;-2.990;2022-10-31T08:54:47;101117.75;;;11.64;68.83
73415;BME280;61633;53.742;-2.990;2022-10-31T08:57:13;101118.49;;;11.63;68.14
73415;BME280;61633;53.742;-2.990;2022-10-31T08:59:38;101114.28;;;11.68;67.48
73415;BME280;61633;53.742;-2.990;2022-10-31T09:02:06;101111.62;;;11.69;67.47
73415;BME280;61633;53.742;-2.990;2022-10-31T09:04:29;101116.40;;;11.98;68.07
73415;BME280;61633;53.742;-2.990;2022-10-31T09:06:54;101114.70;;;11.59;68.10
73415;BME280;61633;53.742;-2.990;2022-10-31T09:09:19;101119.91;;;11.77;68.57
73415;BME280;61633;53.742;-2.990;2022-10-31T09:11:45;101116.66;;;11.50;69.57
73415;BME280;61633;53.742;-2.990;2022-10-31T09:14:10;101121.32;;;11.71;69.14
73415;BME280;61633;53.742;-2.990;2022-10-31T09:16:36;101119.48;;;11.29;70.05
73415;BME280;61633;53.742;-2.990;2022-10-31T09:19:02;101108.50;;;11.94;69.00
73415;BME280;61633;53.742;-2.990;2022-10-31T09:21:27;101102.70;;;11.92;68.08
73415;BME280;61633;53.742;-2.990;2022-10-31T09:23:52;101105.72;;;12.47;67.37
73415;BME280;61633;53.742;-2.990;2022-10-31T09:26:18;101101.47;;;12.09;67.75
73415;BME280;61633;53.742;-2.990;2022-10-31T09:28:44;101105.66;;;11.51;68.19
73415;BME280;61633;53.742;-2.990;2022-10-31T09:31:09;101105.94;;;11.62;67.71
73415;BME280;61633;53.742;-2.990;2022-10-31T09:33:35;101102.12;;;12.56;65.77
73415;BME280;61633;53.742;-2.990;2022-10-31T09:36:00;101100.96;;;12.36;66.15
73415;BME280;61633;53.742;-2.990;2022-10-31T09:38:25;101096.98;;;12.78;64.65
73415;BME280;61633;53.742;-2.990;2022-10-31T09:41:02;101096.11;;;12.77;65.11
73415;BME280;61633;53.742;-2.990;2022-10-31T09:43:22;101094.83;;;12.76;65.32
73415;BME280;61633;53.742;-2.990;2022-10-31T09:45:50;101093.65;;;12.43;66.06
73415;BME280;61633;53.742;-2.990;2022-10-31T09:48:19;101092.58;;;12.06;65.75
73415;BME280;61633;53.742;-2.990;2022-10-31T09:50:39;101086.90;;;12.40;66.94
73415;BME280;61633;53.742;-2.990;2022-10-31T09:53:02;101088.26;;;12.26;66.43
73415;BME280;61633;53.742;-2.990;2022-10-31T09:55:30;101085.13;;;12.64;65.65
73415;BME280;61633;53.742;-2.990;2022-10-31T09:57:49;101081.41;;;12.84;65.25
73415;BME280;61633;53.742;-2.990;2022-10-31T10:00:17;101076.11;;;11.83;66.32
73415;BME280;61633;53.742;-2.990;2022-10-31T10:02:43;101075.48;;;13.03;64.57
73415;BME280;61633;53.742;-2.990;2022-10-31T10:05:11;101078.56;;;12.60;65.56
73415;BME280;61633;53.742;-2.990;2022-10-31T10:07:38;101074.91;;;13.03;64.51
73415;BME280;61633;53.742;-2.990;2022-10-31T10:09:57;101080.38;;;12.66;65.31
73415;BME280;61633;53.742;-2.990;2022-10-31T10:12:36;101074.94;;;12.31;66.36
73415;BME280;61633;53.742;-2.990;2022-10-31T10:14:58;101074.56;;;12.33;65.40
73415;BME280;61633;53.742;-2.990;2022-10-31T10:17:21;101074.45;;;12.38;66.44
73415;BME280;61633;53.742;-2.990;2022-10-31T10:19:50;101076.40;;;12.64;67.04
73415;BME280;61633;53.742;-2.990;2022-10-31T10:22:10;101079.70;;;12.21;66.49
73415;BME280;61633;53.742;-2.990;2022-10-31T10:24:38;101078.55;;;12.53;66.01
73415;BME280;61633;53.742;-2.990;2022-10-31T10:26:59;101083.00;;;12.62;66.22
73415;BME280;61633;53.742;-2.990;2022-10-31T10:29:29;101086.18;;;12.46;65.26
73415;BME280;61633;53.742;-2.990;2022-10-31T10:31:46;101081.61;;;12.89;65.40
73415;BME280;61633;53.742;-2.990;2022-10-31T10:34:16;101080.42;;;12.57;65.60
73415;BME280;61633;53.742;-2.990;2022-10-31T10:36:39;101087.27;;;12.76;65.38
73415;BME280;61633;53.742;-2.990;2022-10-31T10:39:04;101078.46;;;13.11;63.93
73415;BME280;61633;53.742;-2.990;2022-10-31T10:41:35;101089.09;;;12.99;64.77
73415;BME280;61633;53.742;-2.990;2022-10-31T10:43:52;101080.63;;;13.14;62.81
73415;BME280;61633;53.742;-2.990;2022-10-31T10:46:19;101071.68;;;13.69;61.71
73415;BME280;61633;53.742;-2.990;2022-10-31T10:48:45;101066.60;;;14.19;61.82
73415;BME280;61633;53.742;-2.990;2022-10-31T10:51:18;101065.40;;;12.74;63.06
73415;BME280;61633;53.742;-2.990;2022-10-31T10:53:44;101057.77;;;12.69;64.71
73415;BME280;61633;53.742;-2.990;2022-10-31T10:56:07;101059.20;;;13.67;63.12
73415;BME280;61633;53.742;-2.990;2022-10-31T10:58:25;101053.72;;;12.69;63.72
73415;BME280;61633;53.742;-2.990;2022-10-31T11:00:51;101056.49;;;13.19;63.58
73415;BME280;61633;53.742;-2.990;2022-10-31T11:03:17;101048.31;;;13.17;64.62
73415;BME280;61633;53.742;-2.990;2022-10-31T11:05:44;101047.80;;;12.55;64.62
73415;BME280;61633;53.742;-2.990;2022-10-31T11:08:07;101052.97;;;11.42;66.80
73415;BME280;61633;53.742;-2.990;2022-10-31T11:10:33;101054.23;;;12.89;65.67
73415;BME280;61633;53.742;-2.990;2022-10-31T11:13:05;101041.07;;;12.71;64.97
73415;BME280;61633;53.742;-2.990;2022-10-31T11:15:24;101045.34;;;12.83;65.49
73415;BME280;61633;53.742;-2.990;2022-10-31T11:17:51;101046.48;;;12.67;66.03
73415;BME280;61633;53.742;-2.990;2022-10-31T11:20:27;101049.97;;;12.35;65.73
73415;BME280;61633;53.742;-2.990;2022-10-31T11:22:41;101043.38;;;13.72;63.84
73415;BME280;61633;53.742;-2.990;2022-10-31T11:27:31;101043.22;;;13.08;65.23
73415;BME280;61633;53.742;-2.990;2022-10-31T11:30:05;101040.59;;;13.16;65.24
73415;BME280;61633;53.742;-2.990;2022-10-31T11:32:23;101035.49;;;12.65;65.50
73415;BME280;61633;53.742;-2.990;2022-10-31T11:34:49;101023.98;;;13.21;64.22
73415;BME280;61633;53.742;-2.990;2022-10-31T11:37:14;101022.82;;;12.93;64.60
73415;BME280;61633;53.742;-2.990;2022-10-31T11:39:42;101017.03;;;13.52;64.21
73415;BME280;61633;53.742;-2.990;2022-10-31T11:42:03;101025.98;;;12.89;63.65
73415;BME280;61633;53.742;-2.990;2022-10-31T11:44:30;101016.92;;;12.74;64.59
73415;BME280;61633;53.742;-2.990;2022-10-31T11:46:55;101018.72;;;13.70;63.38
73415;BME280;61633;53.742;-2.990;2022-10-31T11:49:23;101013.23;;;13.93;62.69
73415;BME280;61633;53.742;-2.990;2022-10-31T11:51:49;101008.45;;;13.55;62.51
73415;BME280;61633;53.742;-2.990;2022-10-31T11:54:20;101004.67;;;13.27;63.57
73415;BME280;61633;53.742;-2.990;2022-10-31T11:56:41;101009.18;;;13.79;62.18
73415;BME280;61633;53.742;-2.990;2022-10-31T11:59:03;101009.52;;;13.84;62.45
73415;BME280;61633;53.742;-2.990;2022-10-31T12:01:28;101000.79;;;12.74;64.30
73415;BME280;61633;53.742;-2.990;2022-10-31T12:03:58;100998.45;;;13.79;62.84
73415;BME280;61633;53.742;-2.990;2022-10-31T12:06:22;100991.99;;;13.67;63.02
73415;BME280;61633;53.742;-2.990;2022-10-31T12:08:42;100989.64;;;13.37;63.31
73415;BME280;61633;53.742;-2.990;2022-10-31T12:11:19;100983.14;;;12.82;64.06
73415;BME280;61633;53.742;-2.990;2022-10-31T12:13:37;100987.98;;;13.02;64.93
73415;BME280;61633;53.742;-2.990;2022-10-31T12:16:16;100984.82;;;12.99;64.72
73415;BME280;61633;53.742;-2.990;2022-10-31T12:18:36;100982.18;;;12.93;64.48
73415;BME280;61633;53.742;-2.990;2022-10-31T12:20:59;100978.98;;;14.10;63.02
73415;BME280;61633;53.742;-2.990;2022-10-31T12:23:21;100967.93;;;13.18;64.59
73415;BME280;61633;53.742;-2.990;2022-10-31T12:25:45;100958.85;;;13.43;64.52
73415;BME280;61633;53.742;-2.990;2022-10-31T12:28:27;100951.21;;;12.31;65.14
73415;BME280;61633;53.742;-2.990;2022-10-31T12:30:40;100950.16;;;12.41;65.47
73415;BME280;61633;53.742;-2.990;2022-10-31T12:35:30;100945.48;;;12.76;65.68
73415;BME280;61633;53.742;-2.990;2022-10-31T12:37:59;100950.92;;;12.19;65.76
73415;BME280;61633;53.742;-2.990;2022-10-31T12:40:31;100953.19;;;13.44;64.06
73415;BME280;61633;53.742;-2.990;2022-10-31T12:42:49;100945.11;;;13.17;63.96
73415;BME280;61633;53.742;-2.990;2022-10-31T12:45:18;100938.01;;;13.23;63.30
73415;BME280;61633;53.742;-2.990;2022-10-31T12:47:45;100933.43;;;14.10;62.82
73415;BME280;61633;53.742;-2.990;2022-10-31T12:50:01;100932.46;;;13.44;63.58
73415;BME280;61633;53.742;-2.990;2022-10-31T12:52:33;100925.31;;;13.14;64.03
73415;BME280;61633;53.742;-2.990;2022-10-31T12:54:57;100919.77;;;13.99;62.65
73415;BME280;61633;53.742;-2.990;2022-10-31T12:57:18;100923.30;;;13.67;61.71
73415;BME280;61633;53.742;-2.990;2022-10-31T12:59:40;100913.82;;;13.62;62.07
73415;BME280;61633;53.742;-2.990;2022-10-31T13:02:10;100903.34;;;13.88;62.44
73415;BME280;61633;53.742;-2.990;2022-10-31T13:04:36;100906.99;;;14.06;62.81
73415;BME280;61633;53.742;-2.990;2022-10-31T13:06:56;100904.82;;;12.95;64.00
73415;BME280;61633;53.742;-2.990;2022-10-31T13:09:22;100896.69;;;13.21;64.19
73415;BME280;61633;53.742;-2.990;2022-10-31T13:11:46;100902.99;;;13.62;62.78
73415;BME280;61633;53.742;-2.990;2022-10-31T13:14:20;100899.22;;;13.53;63.00
73415;BME280;61633;53.742;-2.990;2022-10-31T13:16:37;100890.96;;;13.18;62.81
73415;BME280;61633;53.742;-2.990;2022-10-31T13:19:10;100883.14;;;14.30;61.33
73415;BME280;61633;53.742;-2.990;2022-10-31T13:21:29;100885.29;;;14.50;60.91
73415;BME280;61633;53.742;-2.990;2022-10-31T13:23:52;100886.74;;;14.09;60.26
73415;BME280;61633;53.742;-2.990;2022-10-31T13:26:23;100876.84;;;14.56;59.09
73415;BME280;61633;53.742;-2.990;2022-10-31T13:28:46;100870.66;;;15.24;58.28
73415;BME280;61633;53.742;-2.990;2022-10-31T13:31:08;100865.27;;;13.58;59.63
73415;BME280;61633;53.742;-2.990;2022-10-31T13:33:37;100857.10;;;14.69;59.23
73415;BME280;61633;53.742;-2.990;2022-10-31T13:36:13;100850.30;;;15.14;58.19
73415;BME280;61633;53.742;-2.990;2022-10-31T13:38:29;100840.91;;;14.11;59.64
73415;BME280;61633;53.742;-2.990;2022-10-31T13:40:55;100847.12;;;14.44;60.61
73415;BME280;61633;53.742;-2.990;2022-10-31T13:43:23;100849.23;;;13.48;61.39
73415;BME280;61633;53.742;-2.990;2022-10-31T13:45:49;100846.15;;;13.97;60.33